Flight Track Log - Related Links

Times and Time Zones

All times are in EDT time to prevent confusion due to time zone crossing. See the RPA3225 flight status page for this flight to view local times or setup timezone preferences in your user account.


Time Position Orientation Groundspeed Altitude Reporting Facility
EDT Latitude Longitude Course Direction KTS MPH feet Rate Location/Type
Mon 05:39:13 AM 43.1081 -76.1306 208° Southwest 133 153 1,200  Level Boston Center
Mon 05:39:19 AM 43.1069 -76.1361 255° West 152 175 1,400 1,433 Climbing Boston Center
Mon 05:40:20 AM 43.0708 -76.1858 225° Southwest 238 274 2,800 1,722 Climbing Boston Center
Mon 05:41:00 AM 42.7874 -76.1816 204° Southwest  Level Estimated
Mon 05:41:14 AM 43.0150 -76.2303 210° Southwest 260 299 4,700  Level Boston Center
Mon 05:41:20 AM 43.0036 -76.2406 213° Southwest 314 361 5,200 3,049 Climbing Boston Center
Mon 05:42:00 AM 42.6795 -76.2065 209° Southwest  Level Estimated
Mon 05:42:15 AM 42.9406 -76.2956 213° Southwest 309 356 7,800  Level Boston Center
Mon 05:43:00 AM 42.5716 -76.2313 216° Southwest  Level Estimated
Mon 05:43:17 AM 42.8622 -76.3631 212° Southwest 326 375 10,000  Level Boston Center
Mon 05:44:00 AM 42.4637 -76.2560 208° Southwest  Level Estimated
Mon 05:44:17 AM 42.7692 -76.4436 212° Southwest 361 415 11,600  Level Boston Center
Mon 05:45:16 AM 42.6825 -76.5197 213° Southwest 367 422 14,400 2,593 Climbing Boston Center
Mon 05:46:15 AM 42.5936 -76.5958 212° Southwest 372 428 16,700 2,118 Climbing Boston Center
Mon 05:47:15 AM 42.5006 -76.6778 213° Southwest 393 452 18,600 2,050 Climbing Boston Center
Mon 05:48:15 AM 42.4022 -76.7617 212° Southwest 413 475 20,800 2,182 Climbing Boston Center
Mon 05:49:16 AM 42.3025 -76.8469 212° Southwest 419 482 23,000 1,389 Climbing Boston Center
Mon 05:49:50 AM 42.2400 -76.9022 213° Southwest 432 497 23,000 574 Level New York Center
Mon 05:50:50 AM 42.1419 -76.9853 212° Southwest 432 497 23,900 500 Climbing New York Center
Mon 05:51:50 AM 42.0394 -77.0706 212° Southwest 432 497 24,000 50 Climbing New York Center
Mon 05:52:50 AM 41.9372 -77.1558 212° Southwest 432 497 24,000  Level New York Center
Mon 05:53:50 AM 41.8411 -77.2383 213° Southwest 432 497 24,000  Level New York Center
Mon 05:54:50 AM 41.7386 -77.3231 212° Southwest 432 497 24,000  Level New York Center
Mon 05:55:50 AM 41.6403 -77.4050 212° Southwest 432 497 24,000  Level New York Center
Mon 05:56:50 AM 41.5356 -77.4861 210° Southwest 432 497 24,000  Level New York Center
Mon 05:57:50 AM 41.4169 -77.4853 180° South 420 483 24,000  Level New York Center
Mon 05:58:50 AM 41.3028 -77.4408 164° South 410 472 24,000  Level New York Center
Mon 05:59:50 AM 41.1886 -77.3964 164° South 424 488 24,000 -150 Level New York Center
Mon 06:00:50 AM 41.0822 -77.3586 165° South 434 499 23,700 -600 Descending New York Center
Mon 06:01:50 AM 40.9658 -77.3169 165° South 434 499 22,800 -950 Descending New York Center
Mon 06:02:50 AM 40.8536 -77.2733 164° South 434 499 21,800 -992 Descending New York Center
Mon 06:03:51 AM 40.7414 -77.2297 164° South 427 491 20,800 -1,000 Descending New York Center
Mon 06:04:50 AM 40.6311 -77.1867 163° South 427 491 19,800 -908 Descending New York Center
Mon 06:05:50 AM 40.5208 -77.1464 164° South 417 480 19,000 -400 Descending New York Center
Mon 06:06:50 AM 40.4022 -77.1053 165° South 411 473 19,000  Level New York Center
Mon 06:07:50 AM 40.3019 -77.0661 163° South 411 473 19,000  Level New York Center
Mon 06:08:50 AM 40.1833 -77.0256 165° South 411 473 19,000  Level New York Center
Mon 06:09:50 AM 40.0853 -76.9869 163° South 411 473 19,000  Level New York Center
Mon 06:10:50 AM 39.9625 -76.9433 165° South 411 473 19,000 -388 Level New York Center
Mon 06:12:09 AM 39.8167 -76.8833 162° South 410 472 18,100 -1,391 Descending Potomac TRACON
Mon 06:13:21 AM 39.6833 -76.8500 169° South 399 459 15,500 -2,083 Descending Potomac TRACON
Mon 06:14:10 AM 39.6000 -76.8167 163° South 397 457 13,900 -1,927 Descending Potomac TRACON
Mon 06:15:10 AM 39.5000 -76.7833 166° South 389 448 12,000 -1,000 Descending Potomac TRACON
Mon 06:16:04 AM 39.4000 -76.7500 166° South 384 442 12,000 -524 Level Potomac TRACON
Mon 06:17:16 AM 39.2667 -76.7000 164° South 375 432 10,900 -950 Descending Potomac TRACON
Mon 06:18:04 AM 39.2000 -76.6667 159° South 378 435 10,100 -529 Descending Potomac TRACON
Mon 06:18:58 AM 39.1167 -76.7167 205° Southwest 314 361 10,000 -737 Descending Potomac TRACON
Mon 06:19:58 AM 39.0333 -76.7833 212° Southwest 330 380 8,700 -1,600 Descending Potomac TRACON
Mon 06:20:58 AM 38.9667 -76.8333 210° Southwest 330 380 6,800 -2,056 Descending Potomac TRACON
Mon 06:21:46 AM 38.9000 -76.8833 210° Southwest 325 374 5,000 -1,824 Descending Potomac TRACON
Mon 06:22:40 AM 38.8167 -76.9167 197° South 301 346 3,700 -1,211 Descending Potomac TRACON
Mon 06:23:40 AM 38.7667 -76.9667 218° Southwest 256 295 2,700 -950 Descending Potomac TRACON
Mon 06:24:40 AM 38.7667 -77.0167 270° West 142 163 1,800 -800 Descending Potomac TRACON
Mon 06:25:40 AM 38.7833 -77.0333 322° Northwest 118 136 1,100 -700 Descending Potomac TRACON
Mon 06:26:40 AM 38.8333 -77.0333 360° North 126 145 400 -700 Descending Potomac TRACON

Login

Don't have an account? Register now (free) for customized features, flight alerts, and more!